createdAt,value
2022-09-30T00:01:44.995Z,3.33
2022-09-30T00:04:22.220Z,4.20
2022-09-30T00:06:51.800Z,4.75
2022-09-30T00:09:19.717Z,4.82
2022-09-30T00:11:47.518Z,4.53
2022-09-30T00:14:20.566Z,5.40
2022-09-30T00:16:47.948Z,6.18
2022-09-30T00:19:16.001Z,4.65
2022-09-30T00:21:43.619Z,5.25
2022-09-30T00:24:11.167Z,4.90
2022-09-30T00:26:38.600Z,4.90
2022-09-30T00:29:06.328Z,6.13
2022-09-30T00:31:35.511Z,4.68
2022-09-30T00:34:07.160Z,3.47
2022-09-30T00:36:46.675Z,3.47
2022-09-30T00:39:23.291Z,4.43
2022-09-30T00:41:54.122Z,4.68
2022-09-30T00:44:51.230Z,5.22
2022-09-30T00:48:10.961Z,5.45
2022-09-30T00:50:47.152Z,5.28
2022-09-30T00:53:39.925Z,4.43
2022-09-30T00:56:14.314Z,5.57
2022-09-30T00:58:47.775Z,5.97
2022-09-30T01:01:15.288Z,3.55
2022-09-30T01:03:52.049Z,6.20
2022-09-30T01:06:21.888Z,3.95
2022-09-30T01:08:49.655Z,4.10
2022-09-30T01:11:17.004Z,4.13
2022-09-30T01:13:50.368Z,4.38
2022-09-30T01:16:38.176Z,9.30
2022-09-30T01:19:24.051Z,4.85
2022-09-30T01:22:15.219Z,4.50
2022-09-30T01:25:07.604Z,3.38
2022-09-30T01:28:12.551Z,4.82
2022-09-30T01:31:32.337Z,3.72
2022-09-30T01:34:36.382Z,5.10
2022-09-30T01:37:58.899Z,3.17
2022-09-30T01:40:35.792Z,2.50
2022-09-30T01:43:22.627Z,6.65
2022-09-30T01:45:51.711Z,3.28
2022-09-30T01:48:26.043Z,3.85
2022-09-30T01:50:59.350Z,3.35
2022-09-30T01:53:55.791Z,3.97
2022-09-30T01:56:38.537Z,3.10
2022-09-30T01:59:11.331Z,5.35
2022-09-30T02:01:57.827Z,3.92
2022-09-30T02:04:40.384Z,3.90
2022-09-30T02:07:14.624Z,5.72
2022-09-30T02:09:49.540Z,3.55
2022-09-30T02:12:21.189Z,4.88
2022-09-30T02:14:55.788Z,4.50
2022-09-30T02:17:29.893Z,3.63
2022-09-30T02:20:01.658Z,5.10
2022-09-30T02:22:44.672Z,4.18
2022-09-30T02:25:20.364Z,2.90
2022-09-30T02:27:53.630Z,4.22
2022-09-30T02:30:21.047Z,5.90
2022-09-30T02:32:55.696Z,3.55
2022-09-30T02:35:29.026Z,3.38
2022-09-30T02:38:05.710Z,3.35
2022-09-30T02:40:43.489Z,3.28
2022-09-30T02:43:11.316Z,5.50
2022-09-30T02:45:50.137Z,3.67
2022-09-30T02:48:29.922Z,4.05
2022-09-30T02:51:11.405Z,4.07
2022-09-30T02:53:51.748Z,5.18
2022-09-30T02:56:57.335Z,5.30
2022-09-30T02:59:26.571Z,3.75
2022-09-30T03:01:54.355Z,4.50
2022-09-30T03:04:34.622Z,4.68
2022-09-30T03:07:02.120Z,4.93
2022-09-30T03:09:29.560Z,5.00
2022-09-30T03:12:23.778Z,5.75
2022-09-30T03:15:33.149Z,4.78
2022-09-30T03:18:13.782Z,4.32
2022-09-30T03:20:53.066Z,4.85
2022-09-30T03:23:39.303Z,4.28
2022-09-30T03:26:41.138Z,4.80
2022-09-30T03:29:41.972Z,7.10
2022-09-30T03:32:40.036Z,5.53
2022-09-30T03:35:50.277Z,4.53
2022-09-30T03:39:04.206Z,5.60
2022-09-30T03:41:48.066Z,5.75
2022-09-30T03:44:22.553Z,4.38
2022-09-30T03:46:53.835Z,4.90
2022-09-30T03:49:28.266Z,7.68
2022-09-30T03:51:58.786Z,5.55
2022-09-30T03:54:26.465Z,8.40
2022-09-30T03:56:54.294Z,9.23
2022-09-30T03:59:28.044Z,7.55
2022-09-30T04:01:57.468Z,6.75
2022-09-30T04:04:25.147Z,7.25
2022-09-30T04:06:52.440Z,6.78
2022-09-30T04:09:19.922Z,8.25
2022-09-30T04:11:47.372Z,6.75
2022-09-30T04:14:14.816Z,6.90
2022-09-30T04:16:42.992Z,6.47
2022-09-30T04:19:10.439Z,7.20
2022-09-30T04:21:37.770Z,6.88
2022-09-30T04:24:05.539Z,6.78
2022-09-30T04:26:32.818Z,6.10
2022-09-30T04:29:00.164Z,6.03
2022-09-30T04:31:27.604Z,5.35
2022-09-30T04:33:57.426Z,5.78
2022-09-30T04:36:24.974Z,5.25
2022-09-30T04:38:53.554Z,6.85
2022-09-30T04:41:21.221Z,6.13
2022-09-30T04:43:49.066Z,7.65
2022-09-30T04:46:18.380Z,3.67
2022-09-30T04:48:46.939Z,6.50
2022-09-30T04:51:19.285Z,5.40
2022-09-30T04:53:47.928Z,5.85
2022-09-30T04:56:16.939Z,5.05
2022-09-30T04:58:44.383Z,4.57
2022-09-30T05:01:14.180Z,4.18
2022-09-30T05:03:43.430Z,4.32
2022-09-30T05:06:12.025Z,6.53
2022-09-30T05:08:44.677Z,4.80
2022-09-30T05:11:17.911Z,5.13
2022-09-30T05:13:45.850Z,6.53
2022-09-30T05:16:13.869Z,7.72
2022-09-30T05:18:45.602Z,8.50
2022-09-30T05:21:15.772Z,4.18
2022-09-30T05:23:43.143Z,6.10
2022-09-30T05:26:12.481Z,7.55
2022-09-30T05:28:43.325Z,7.18
2022-09-30T05:31:12.290Z,3.42
2022-09-30T05:33:40.468Z,5.80
2022-09-30T05:36:09.665Z,5.82
2022-09-30T05:38:37.019Z,4.63
2022-09-30T05:41:12.709Z,7.97
2022-09-30T05:43:41.164Z,3.67
2022-09-30T05:46:08.785Z,5.90
2022-09-30T05:48:36.119Z,7.55
2022-09-30T05:51:03.614Z,6.57
2022-09-30T05:53:34.715Z,7.30
2022-09-30T05:56:02.242Z,4.93
2022-09-30T05:58:29.621Z,6.03
2022-09-30T06:00:59.267Z,8.57
2022-09-30T06:03:29.208Z,7.13
2022-09-30T06:05:57.860Z,6.38
2022-09-30T06:08:25.747Z,6.75
2022-09-30T06:10:53.230Z,9.63
2022-09-30T06:13:22.124Z,8.43
2022-09-30T06:16:01.712Z,8.02
2022-09-30T06:18:31.056Z,8.20
2022-09-30T06:21:00.395Z,9.52
2022-09-30T06:23:27.986Z,9.35
2022-09-30T06:25:56.239Z,6.53
2022-09-30T06:28:23.974Z,9.93
2022-09-30T06:30:51.391Z,7.70
2022-09-30T06:33:18.781Z,8.20
2022-09-30T06:35:47.610Z,11.30
2022-09-30T06:38:18.108Z,14.95
2022-09-30T06:40:56.720Z,15.77
2022-09-30T06:43:24.073Z,11.07
2022-09-30T06:45:51.997Z,7.80
2022-09-30T06:48:33.055Z,5.78
2022-09-30T06:51:03.446Z,7.18
2022-09-30T06:53:30.738Z,6.38
2022-09-30T06:55:58.613Z,3.97
2022-09-30T06:58:26.065Z,8.45
2022-09-30T07:00:58.152Z,6.85
2022-09-30T07:05:57.572Z,5.07
2022-09-30T07:08:34.444Z,5.97
2022-09-30T07:11:04.575Z,11.43
2022-09-30T07:13:33.284Z,6.28
2022-09-30T07:16:00.753Z,6.03
2022-09-30T07:18:28.761Z,6.40
2022-09-30T07:20:56.819Z,4.35
2022-09-30T07:23:27.927Z,5.00
2022-09-30T07:25:57.262Z,5.32
2022-09-30T07:28:33.976Z,7.13
2022-09-30T07:31:31.195Z,6.18
2022-09-30T07:33:56.896Z,5.40
2022-09-30T07:36:32.574Z,6.25
2022-09-30T07:39:06.137Z,7.22
2022-09-30T07:41:36.020Z,6.15
2022-09-30T07:44:05.637Z,5.10
2022-09-30T07:46:34.808Z,6.07
2022-09-30T07:49:07.608Z,8.75
2022-09-30T07:51:37.639Z,6.35
2022-09-30T07:54:12.841Z,6.70
2022-09-30T07:57:08.294Z,6.28
2022-09-30T07:59:30.629Z,5.82
2022-09-30T08:01:58.596Z,5.30
2022-09-30T08:04:27.242Z,6.80
2022-09-30T08:07:00.056Z,9.23
2022-09-30T08:09:30.260Z,6.95
2022-09-30T08:11:58.062Z,6.28
2022-09-30T08:14:27.645Z,5.78
2022-09-30T08:16:57.064Z,5.70
2022-09-30T08:19:25.530Z,4.80
2022-09-30T08:21:55.817Z,12.95
2022-09-30T08:24:24.302Z,5.07
2022-09-30T08:26:52.594Z,3.25
2022-09-30T08:29:35.853Z,5.13
2022-09-30T08:32:08.003Z,4.68
2022-09-30T08:34:35.772Z,5.28
2022-09-30T08:37:08.664Z,3.75
2022-09-30T08:39:38.013Z,6.13
2022-09-30T08:42:39.415Z,4.50
2022-09-30T08:45:44.170Z,6.53
2022-09-30T08:48:39.091Z,3.05
2022-09-30T08:51:29.434Z,5.35
2022-09-30T08:53:58.684Z,5.13
2022-09-30T08:56:31.983Z,4.07
2022-09-30T08:59:23.925Z,4.38
2022-09-30T09:01:58.778Z,3.97
2022-09-30T09:04:26.189Z,10.85
2022-09-30T09:06:58.682Z,6.57
2022-09-30T09:09:53.657Z,4.40
2022-09-30T09:12:43.447Z,4.03
2022-09-30T09:15:33.627Z,3.03
2022-09-30T09:18:23.751Z,4.90
2022-09-30T09:20:57.866Z,3.97
2022-09-30T09:23:28.563Z,4.72
2022-09-30T09:25:56.059Z,3.53
2022-09-30T09:28:37.019Z,3.03
2022-09-30T09:31:04.798Z,2.75
2022-09-30T09:33:39.841Z,3.72
2022-09-30T09:36:41.468Z,3.50
2022-09-30T09:39:21.010Z,3.17
2022-09-30T09:42:13.159Z,3.13
2022-09-30T09:44:53.220Z,4.55
2022-09-30T09:47:20.759Z,3.45
2022-09-30T09:49:57.909Z,3.10
2022-09-30T09:52:51.550Z,3.05
2022-09-30T09:55:22.608Z,4.47
2022-09-30T09:58:10.267Z,3.90
2022-09-30T10:01:09.545Z,3.88
2022-09-30T10:03:37.493Z,5.13
2022-09-30T10:06:10.645Z,2.90
2022-09-30T10:08:52.045Z,4.10
2022-09-30T10:11:24.828Z,3.83
2022-09-30T10:13:57.826Z,2.90
2022-09-30T10:16:32.971Z,2.00
2022-09-30T10:19:00.492Z,2.70
2022-09-30T10:21:29.304Z,2.28
2022-09-30T10:24:00.556Z,3.38
2022-09-30T10:26:29.764Z,3.38
2022-09-30T10:29:04.311Z,2.35
2022-09-30T10:31:41.810Z,3.80
2022-09-30T10:34:33.667Z,3.28
2022-09-30T10:37:22.576Z,2.95
2022-09-30T10:40:01.567Z,2.65
2022-09-30T10:42:32.946Z,4.50
2022-09-30T10:45:23.477Z,3.97
2022-09-30T10:47:55.031Z,1.98
2022-09-30T10:50:26.874Z,2.97
2022-09-30T10:52:58.185Z,2.20
2022-09-30T10:55:41.877Z,1.85
2022-09-30T10:58:39.871Z,3.25
2022-09-30T11:01:29.585Z,1.55
2022-09-30T11:04:33.399Z,2.42
2022-09-30T11:07:26.731Z,1.63
2022-09-30T11:10:21.429Z,2.15
2022-09-30T11:13:04.160Z,1.40
2022-09-30T11:15:56.144Z,3.00
2022-09-30T11:18:36.204Z,4.28
2022-09-30T11:21:21.986Z,1.65
2022-09-30T11:23:55.076Z,1.55
2022-09-30T11:26:57.677Z,4.63
2022-09-30T11:30:02.285Z,2.13
2022-09-30T11:33:16.279Z,1.90
2022-09-30T11:36:27.677Z,2.00
2022-09-30T11:39:16.359Z,2.15
2022-09-30T11:42:04.042Z,2.67
2022-09-30T11:44:41.746Z,2.75
2022-09-30T11:47:35.476Z,1.27
2022-09-30T11:50:16.793Z,2.13
2022-09-30T11:53:11.805Z,2.53
2022-09-30T11:56:06.216Z,2.30
2022-09-30T11:58:43.455Z,1.90
2022-09-30T12:01:41.614Z,1.17
2022-09-30T12:04:31.532Z,2.03
2022-09-30T12:07:09.773Z,2.25
2022-09-30T12:09:44.066Z,1.95
2022-09-30T12:12:17.185Z,3.47
2022-09-30T12:14:53.611Z,1.98
2022-09-30T12:17:46.570Z,2.28
2022-09-30T12:20:34.010Z,1.85
2022-09-30T12:23:21.012Z,2.03
2022-09-30T12:26:01.132Z,3.03
2022-09-30T12:28:53.930Z,6.82
2022-09-30T12:31:34.402Z,3.17
2022-09-30T12:34:39.900Z,7.00
2022-09-30T12:37:32.904Z,1.60
2022-09-30T12:40:26.117Z,2.35
2022-09-30T12:43:49.916Z,1.02
2022-09-30T12:46:41.958Z,1.13
2022-09-30T12:49:14.951Z,1.25
2022-09-30T12:51:44.087Z,0.73
2022-09-30T12:54:22.562Z,1.33
2022-09-30T12:57:00.582Z,1.25
2022-09-30T12:59:32.075Z,2.10
2022-09-30T13:02:03.806Z,0.70
2022-09-30T13:04:39.123Z,0.93
2022-09-30T13:07:13.439Z,1.30
2022-09-30T13:10:01.970Z,0.65
2022-09-30T13:12:41.575Z,1.10
2022-09-30T13:15:46.386Z,1.13
2022-09-30T13:18:58.399Z,1.30
2022-09-30T13:21:26.037Z,1.13
2022-09-30T13:23:57.336Z,1.95
2022-09-30T13:26:34.404Z,0.68
2022-09-30T13:29:39.725Z,0.38
2022-09-30T13:32:07.608Z,0.70
2022-09-30T13:34:49.665Z,1.02
2022-09-30T13:37:37.854Z,1.20
2022-09-30T13:40:14.351Z,1.40
2022-09-30T13:42:50.001Z,0.50
2022-09-30T13:45:33.930Z,1.98
2022-09-30T13:48:23.900Z,0.90
2022-09-30T13:50:53.640Z,0.85
2022-09-30T13:53:39.345Z,1.77
2022-09-30T13:56:30.071Z,0.50
2022-09-30T13:59:25.164Z,2.42
2022-09-30T14:02:04.082Z,1.42
2022-09-30T14:05:18.865Z,0.70
2022-09-30T14:08:21.399Z,1.10
2022-09-30T14:11:02.600Z,2.53
2022-09-30T14:13:48.781Z,0.87
2022-09-30T14:17:03.577Z,0.93
2022-09-30T14:20:03.844Z,1.25
2022-09-30T14:22:31.339Z,1.63
2022-09-30T14:24:59.235Z,1.05
2022-09-30T14:28:08.388Z,0.20
2022-09-30T14:30:41.788Z,0.80
2022-09-30T14:33:26.166Z,0.77
2022-09-30T14:35:54.877Z,1.35
2022-09-30T14:38:28.021Z,0.73
2022-09-30T14:40:58.736Z,1.08
2022-09-30T14:43:37.797Z,0.95
2022-09-30T14:46:19.674Z,1.05
2022-09-30T14:48:49.759Z,1.00
2022-09-30T14:51:23.558Z,1.92
2022-09-30T14:54:04.410Z,0.70
2022-09-30T14:56:35.673Z,0.68
2022-09-30T14:59:22.027Z,0.85
2022-09-30T15:01:55.496Z,0.30
2022-09-30T15:04:28.867Z,12.50
2022-09-30T15:06:56.860Z,0.57
2022-09-30T15:09:39.103Z,0.40
2022-09-30T15:12:19.154Z,1.55
2022-09-30T15:14:54.549Z,0.35
2022-09-30T15:17:30.799Z,0.75
2022-09-30T15:19:58.883Z,0.45
2022-09-30T15:22:29.326Z,0.80
2022-09-30T15:24:59.795Z,0.63
2022-09-30T15:27:33.035Z,0.40
2022-09-30T15:30:23.366Z,0.35
2022-09-30T15:33:01.632Z,0.82
2022-09-30T15:35:30.392Z,0.68
2022-09-30T15:38:10.011Z,0.38
2022-09-30T15:40:46.243Z,0.50
2022-09-30T15:43:18.132Z,0.77
2022-09-30T15:48:36.054Z,0.55
2022-09-30T15:51:26.036Z,0.30
2022-09-30T15:53:53.940Z,0.55
2022-09-30T15:56:36.226Z,1.30
2022-09-30T15:59:14.694Z,0.70
2022-09-30T16:01:56.167Z,3.63
2022-09-30T16:04:26.204Z,4.72
2022-09-30T16:06:54.822Z,2.25
2022-09-30T16:09:33.322Z,2.28
2022-09-30T16:12:24.334Z,1.92
2022-09-30T16:15:12.285Z,1.52
2022-09-30T16:17:49.868Z,0.90
2022-09-30T16:20:24.771Z,1.23
2022-09-30T16:22:55.967Z,1.73
2022-09-30T16:25:35.076Z,1.00
2022-09-30T16:28:13.779Z,1.25
2022-09-30T16:30:49.155Z,1.90
2022-09-30T16:33:16.992Z,1.23
2022-09-30T16:35:45.376Z,1.80
2022-09-30T16:38:14.425Z,0.60
2022-09-30T16:40:41.810Z,1.70
2022-09-30T16:43:11.725Z,1.27
2022-09-30T16:45:40.358Z,1.85
2022-09-30T16:48:27.236Z,2.33
2022-09-30T16:51:14.041Z,2.75
2022-09-30T16:53:41.811Z,2.53
2022-09-30T16:56:20.808Z,1.55
2022-09-30T16:58:48.220Z,1.42
2022-09-30T17:01:23.377Z,5.53
2022-09-30T17:03:52.524Z,2.53
2022-09-30T17:06:21.753Z,1.92
2022-09-30T17:08:49.514Z,2.28
2022-09-30T17:11:16.936Z,1.70
2022-09-30T17:13:44.338Z,2.33
2022-09-30T17:16:11.693Z,2.38
2022-09-30T17:18:40.325Z,2.95
2022-09-30T17:21:07.598Z,3.58
2022-09-30T17:23:35.050Z,4.25
2022-09-30T17:26:06.376Z,4.00
2022-09-30T17:28:36.376Z,2.17
2022-09-30T17:31:03.796Z,5.30
2022-09-30T17:33:36.304Z,2.85
2022-09-30T17:36:12.404Z,3.33
2022-09-30T17:38:40.664Z,4.95
2022-09-30T17:41:28.935Z,2.67
2022-09-30T17:43:57.865Z,4.68
2022-09-30T17:46:25.550Z,6.28
2022-09-30T17:48:55.657Z,4.70
2022-09-30T17:51:23.213Z,5.05
2022-09-30T17:53:50.611Z,6.28
2022-09-30T17:56:20.667Z,5.40
2022-09-30T17:58:50.645Z,5.10
2022-09-30T18:01:20.473Z,5.57
2022-09-30T18:03:48.034Z,7.22
2022-09-30T18:06:15.342Z,6.88
2022-09-30T18:08:43.644Z,10.25
2022-09-30T18:11:11.621Z,6.43
2022-09-30T18:13:38.963Z,7.13
2022-09-30T18:16:07.224Z,6.15
2022-09-30T18:18:35.501Z,7.90
2022-09-30T18:21:02.853Z,8.00
2022-09-30T18:23:30.221Z,7.82
2022-09-30T18:25:57.977Z,6.55
2022-09-30T18:28:25.569Z,5.88
2022-09-30T18:30:52.896Z,7.40
2022-09-30T18:33:21.714Z,8.00
2022-09-30T18:35:49.504Z,6.68
2022-09-30T18:38:16.906Z,7.68
2022-09-30T18:40:45.718Z,6.18
2022-09-30T18:43:14.374Z,9.73
2022-09-30T18:45:43.704Z,11.30
2022-09-30T18:48:11.308Z,6.25
2022-09-30T18:50:38.949Z,8.52
2022-09-30T18:53:09.779Z,8.68
2022-09-30T18:55:38.417Z,8.47
2022-09-30T18:58:05.946Z,6.53
2022-09-30T19:00:33.602Z,12.15
2022-09-30T19:03:01.006Z,9.50
2022-09-30T19:05:28.423Z,8.60
2022-09-30T19:07:56.042Z,6.32
2022-09-30T19:10:25.405Z,6.55
2022-09-30T19:12:52.746Z,5.22
2022-09-30T19:15:20.228Z,6.22
2022-09-30T19:17:53.106Z,5.63
2022-09-30T19:20:20.449Z,4.88
2022-09-30T19:22:48.127Z,8.52
2022-09-30T19:25:15.905Z,4.85
2022-09-30T19:27:43.817Z,4.88
2022-09-30T19:30:13.915Z,7.32
2022-09-30T19:32:41.330Z,7.45
2022-09-30T19:35:11.807Z,11.50
2022-09-30T19:37:55.425Z,4.00
2022-09-30T19:40:25.100Z,3.45
2022-09-30T19:42:52.483Z,3.97
2022-09-30T19:45:25.764Z,4.88
2022-09-30T19:47:54.067Z,5.70
2022-09-30T19:50:21.608Z,5.13
2022-09-30T19:52:56.749Z,10.45
2022-09-30T19:55:25.623Z,6.38
2022-09-30T19:57:53.171Z,6.65
2022-09-30T20:00:20.668Z,6.07
2022-09-30T20:02:47.991Z,6.70
2022-09-30T20:05:15.468Z,5.53
2022-09-30T20:07:42.792Z,7.65
2022-09-30T20:10:10.176Z,4.07
2022-09-30T20:12:37.483Z,5.80
2022-09-30T20:15:45.902Z,5.60
2022-09-30T20:18:13.628Z,7.55
2022-09-30T20:20:45.388Z,8.43
2022-09-30T20:23:13.484Z,6.70
2022-09-30T20:25:41.971Z,7.10
2022-09-30T20:28:09.433Z,5.75
2022-09-30T20:30:45.634Z,7.50
2022-09-30T20:33:18.228Z,8.60
2022-09-30T20:35:46.938Z,10.85
2022-09-30T20:38:24.931Z,6.22
2022-09-30T20:40:59.767Z,7.60
2022-09-30T20:43:30.309Z,5.80
2022-09-30T20:46:01.499Z,8.05
2022-09-30T20:48:33.865Z,14.07
2022-09-30T20:51:08.736Z,6.45
2022-09-30T20:53:39.827Z,5.38
2022-09-30T20:56:09.149Z,7.55
2022-09-30T20:58:37.456Z,4.75
2022-09-30T21:01:08.365Z,7.38
2022-09-30T21:03:37.475Z,5.88
2022-09-30T21:06:07.444Z,6.03
2022-09-30T21:08:39.118Z,4.60
2022-09-30T21:11:07.449Z,10.10
2022-09-30T21:13:35.658Z,6.78
2022-09-30T21:16:05.587Z,6.05
2022-09-30T21:18:33.533Z,4.65
2022-09-30T21:21:02.525Z,5.45
2022-09-30T21:23:31.775Z,6.03
2022-09-30T21:26:00.309Z,3.65
2022-09-30T21:28:28.440Z,5.25
2022-09-30T21:30:56.352Z,5.15
2022-09-30T21:33:25.211Z,4.45
2022-09-30T21:36:03.071Z,3.88
2022-09-30T21:38:31.208Z,4.35
2022-09-30T21:41:04.179Z,4.53
2022-09-30T21:43:33.047Z,4.32
2022-09-30T21:46:06.962Z,5.18
2022-09-30T21:48:36.755Z,5.10
2022-09-30T21:51:05.786Z,5.78
2022-09-30T21:53:33.163Z,4.13
2022-09-30T21:56:02.596Z,6.75
2022-09-30T21:58:31.844Z,4.75
2022-09-30T22:01:04.332Z,4.68
2022-09-30T22:03:37.894Z,5.78
2022-09-30T22:06:08.094Z,4.47
2022-09-30T22:08:40.227Z,3.75
2022-09-30T22:11:14.878Z,14.00
2022-09-30T22:13:46.383Z,3.00
2022-09-30T22:16:19.941Z,4.00
2022-09-30T22:18:47.319Z,4.68
2022-09-30T22:21:15.240Z,3.65
2022-09-30T22:23:43.865Z,5.07
2022-09-30T22:26:12.441Z,4.10
2022-09-30T22:28:39.885Z,5.75
2022-09-30T22:31:22.588Z,2.67
2022-09-30T22:34:10.724Z,3.53
2022-09-30T22:36:56.591Z,3.95
2022-09-30T22:39:24.661Z,6.40
2022-09-30T22:41:55.904Z,3.47
2022-09-30T22:44:28.799Z,3.03
2022-09-30T22:46:59.536Z,3.92
2022-09-30T22:49:32.584Z,2.67
2022-09-30T22:52:01.961Z,3.25
2022-09-30T22:54:29.898Z,5.88
2022-09-30T22:56:59.235Z,3.65
2022-09-30T22:59:27.708Z,2.60
2022-09-30T23:01:56.538Z,3.92
2022-09-30T23:04:26.869Z,4.18
2022-09-30T23:06:55.536Z,3.47
2022-09-30T23:09:23.204Z,5.05
2022-09-30T23:11:54.234Z,4.85
2022-09-30T23:14:22.272Z,1.83
2022-09-30T23:16:50.291Z,3.33
2022-09-30T23:19:18.109Z,16.83
2022-09-30T23:21:45.559Z,3.55
2022-09-30T23:24:12.927Z,4.10
2022-09-30T23:26:40.327Z,4.93
2022-09-30T23:29:11.783Z,4.28
2022-09-30T23:31:39.558Z,5.15
2022-09-30T23:34:07.419Z,3.60
2022-09-30T23:36:36.636Z,3.42
2022-09-30T23:39:13.318Z,3.28
2022-09-30T23:41:40.819Z,5.63
2022-09-30T23:44:09.145Z,2.78
2022-09-30T23:46:36.639Z,4.95
2022-09-30T23:49:04.246Z,3.42
2022-09-30T23:51:33.629Z,3.65
2022-09-30T23:54:02.339Z,5.03
2022-09-30T23:56:29.756Z,4.03
2022-09-30T23:58:57.420Z,4.40
